sensor_id;sensor_type;location;lat;lon;timestamp;P1;durP1;ratioP1;P2;durP2;ratioP2
12348;SDS011;5974;42.710;27.258;2023-08-17T00:00:44;5.20;;;4.00;;
12348;SDS011;5974;42.710;27.258;2023-08-17T00:03:13;4.30;;;3.73;;
12348;SDS011;5974;42.710;27.258;2023-08-17T00:05:39;5.70;;;3.43;;
12348;SDS011;5974;42.710;27.258;2023-08-17T00:08:06;7.67;;;3.77;;
12348;SDS011;5974;42.710;27.258;2023-08-17T00:10:33;7.43;;;3.93;;
12348;SDS011;5974;42.710;27.258;2023-08-17T00:13:00;10.20;;;4.33;;
12348;SDS011;5974;42.710;27.258;2023-08-17T00:15:28;6.07;;;4.10;;
12348;SDS011;5974;42.710;27.258;2023-08-17T00:17:55;6.00;;;4.20;;
12348;SDS011;5974;42.710;27.258;2023-08-17T00:20:23;9.03;;;4.20;;
12348;SDS011;5974;42.710;27.258;2023-08-17T00:22:50;8.90;;;3.97;;
12348;SDS011;5974;42.710;27.258;2023-08-17T00:25:17;5.83;;;3.77;;
12348;SDS011;5974;42.710;27.258;2023-08-17T00:27:44;5.90;;;4.00;;
12348;SDS011;5974;42.710;27.258;2023-08-17T00:30:11;6.03;;;4.10;;
12348;SDS011;5974;42.710;27.258;2023-08-17T00:32:38;8.70;;;4.20;;
12348;SDS011;5974;42.710;27.258;2023-08-17T00:35:06;5.60;;;4.03;;
12348;SDS011;5974;42.710;27.258;2023-08-17T00:37:35;5.73;;;3.80;;
12348;SDS011;5974;42.710;27.258;2023-08-17T00:40:01;7.17;;;3.90;;
12348;SDS011;5974;42.710;27.258;2023-08-17T00:42:29;5.53;;;4.03;;
12348;SDS011;5974;42.710;27.258;2023-08-17T00:44:56;6.37;;;3.83;;
12348;SDS011;5974;42.710;27.258;2023-08-17T00:47:23;6.17;;;3.80;;
12348;SDS011;5974;42.710;27.258;2023-08-17T00:49:51;5.97;;;4.00;;
12348;SDS011;5974;42.710;27.258;2023-08-17T00:52:18;6.93;;;4.20;;
12348;SDS011;5974;42.710;27.258;2023-08-17T00:54:46;7.90;;;4.00;;
12348;SDS011;5974;42.710;27.258;2023-08-17T00:57:13;5.57;;;3.83;;
12348;SDS011;5974;42.710;27.258;2023-08-17T00:59:40;6.23;;;3.90;;
12348;SDS011;5974;42.710;27.258;2023-08-17T01:02:07;6.67;;;3.70;;
12348;SDS011;5974;42.710;27.258;2023-08-17T01:04:35;4.90;;;3.87;;
12348;SDS011;5974;42.710;27.258;2023-08-17T01:07:02;9.20;;;3.93;;
12348;SDS011;5974;42.710;27.258;2023-08-17T01:09:28;8.67;;;4.00;;
12348;SDS011;5974;42.710;27.258;2023-08-17T01:11:58;7.33;;;3.77;;
12348;SDS011;5974;42.710;27.258;2023-08-17T01:14:32;5.50;;;4.00;;
12348;SDS011;5974;42.710;27.258;2023-08-17T01:17:06;5.53;;;3.90;;
12348;SDS011;5974;42.710;27.258;2023-08-17T01:19:39;5.27;;;4.43;;
12348;SDS011;5974;42.710;27.258;2023-08-17T01:22:08;5.00;;;4.20;;
12348;SDS011;5974;42.710;27.258;2023-08-17T01:24:38;7.60;;;3.73;;
12348;SDS011;5974;42.710;27.258;2023-08-17T01:27:05;8.47;;;4.30;;
12348;SDS011;5974;42.710;27.258;2023-08-17T01:29:32;6.67;;;3.80;;
12348;SDS011;5974;42.710;27.258;2023-08-17T01:32:01;4.40;;;3.90;;
12348;SDS011;5974;42.710;27.258;2023-08-17T01:34:35;6.90;;;4.00;;
12348;SDS011;5974;42.710;27.258;2023-08-17T01:37:06;6.57;;;4.10;;
12348;SDS011;5974;42.710;27.258;2023-08-17T01:39:37;8.07;;;3.73;;
12348;SDS011;5974;42.710;27.258;2023-08-17T01:42:09;5.07;;;3.80;;
12348;SDS011;5974;42.710;27.258;2023-08-17T01:44:38;7.57;;;4.20;;
12348;SDS011;5974;42.710;27.258;2023-08-17T01:47:05;5.83;;;3.70;;
12348;SDS011;5974;42.710;27.258;2023-08-17T01:49:32;4.70;;;3.77;;
12348;SDS011;5974;42.710;27.258;2023-08-17T01:51:59;6.43;;;4.33;;
12348;SDS011;5974;42.710;27.258;2023-08-17T01:54:27;7.23;;;4.30;;
12348;SDS011;5974;42.710;27.258;2023-08-17T01:56:56;9.40;;;3.87;;
12348;SDS011;5974;42.710;27.258;2023-08-17T01:59:22;7.60;;;3.87;;
12348;SDS011;5974;42.710;27.258;2023-08-17T02:01:49;5.43;;;3.90;;
12348;SDS011;5974;42.710;27.258;2023-08-17T02:04:16;6.03;;;3.90;;
12348;SDS011;5974;42.710;27.258;2023-08-17T02:06:43;5.60;;;3.90;;
12348;SDS011;5974;42.710;27.258;2023-08-17T02:09:10;5.57;;;3.97;;
12348;SDS011;5974;42.710;27.258;2023-08-17T02:11:37;6.97;;;4.57;;
12348;SDS011;5974;42.710;27.258;2023-08-17T02:14:05;4.97;;;4.03;;
12348;SDS011;5974;42.710;27.258;2023-08-17T02:16:32;6.40;;;4.13;;
12348;SDS011;5974;42.710;27.258;2023-08-17T02:18:59;8.47;;;4.03;;
12348;SDS011;5974;42.710;27.258;2023-08-17T02:21:26;7.53;;;3.80;;
12348;SDS011;5974;42.710;27.258;2023-08-17T02:23:53;6.23;;;4.30;;
12348;SDS011;5974;42.710;27.258;2023-08-17T02:26:20;6.47;;;4.07;;
12348;SDS011;5974;42.710;27.258;2023-08-17T02:28:46;4.27;;;3.87;;
12348;SDS011;5974;42.710;27.258;2023-08-17T02:31:15;4.73;;;3.63;;
12348;SDS011;5974;42.710;27.258;2023-08-17T02:33:41;5.70;;;3.83;;
12348;SDS011;5974;42.710;27.258;2023-08-17T02:36:08;5.10;;;3.77;;
12348;SDS011;5974;42.710;27.258;2023-08-17T02:38:35;9.53;;;4.43;;
12348;SDS011;5974;42.710;27.258;2023-08-17T02:41:02;4.30;;;3.90;;
12348;SDS011;5974;42.710;27.258;2023-08-17T02:43:29;6.77;;;3.60;;
12348;SDS011;5974;42.710;27.258;2023-08-17T02:45:56;4.93;;;3.57;;
12348;SDS011;5974;42.710;27.258;2023-08-17T02:48:26;7.03;;;3.50;;
12348;SDS011;5974;42.710;27.258;2023-08-17T02:50:52;3.80;;;3.43;;
12348;SDS011;5974;42.710;27.258;2023-08-17T02:53:19;7.63;;;3.73;;
12348;SDS011;5974;42.710;27.258;2023-08-17T02:55:46;5.00;;;3.90;;
12348;SDS011;5974;42.710;27.258;2023-08-17T02:58:13;6.27;;;3.80;;
12348;SDS011;5974;42.710;27.258;2023-08-17T03:00:40;3.83;;;3.33;;
12348;SDS011;5974;42.710;27.258;2023-08-17T03:03:07;6.37;;;3.53;;
12348;SDS011;5974;42.710;27.258;2023-08-17T03:05:35;7.97;;;3.83;;
12348;SDS011;5974;42.710;27.258;2023-08-17T03:08:02;5.23;;;3.43;;
12348;SDS011;5974;42.710;27.258;2023-08-17T03:10:29;5.77;;;3.83;;
12348;SDS011;5974;42.710;27.258;2023-08-17T03:12:57;4.10;;;3.70;;
12348;SDS011;5974;42.710;27.258;2023-08-17T03:15:23;5.13;;;3.60;;
12348;SDS011;5974;42.710;27.258;2023-08-17T03:17:50;5.43;;;3.73;;
12348;SDS011;5974;42.710;27.258;2023-08-17T03:20:17;7.77;;;3.43;;
12348;SDS011;5974;42.710;27.258;2023-08-17T03:22:45;4.30;;;3.30;;
12348;SDS011;5974;42.710;27.258;2023-08-17T03:25:12;4.77;;;3.43;;
12348;SDS011;5974;42.710;27.258;2023-08-17T03:27:39;4.43;;;3.33;;
12348;SDS011;5974;42.710;27.258;2023-08-17T03:30:06;5.80;;;3.47;;
12348;SDS011;5974;42.710;27.258;2023-08-17T03:32:33;4.83;;;3.73;;
12348;SDS011;5974;42.710;27.258;2023-08-17T03:35:00;5.57;;;3.80;;
12348;SDS011;5974;42.710;27.258;2023-08-17T03:37:27;5.60;;;3.87;;
12348;SDS011;5974;42.710;27.258;2023-08-17T03:39:55;5.53;;;3.50;;
12348;SDS011;5974;42.710;27.258;2023-08-17T03:42:22;5.33;;;3.67;;
12348;SDS011;5974;42.710;27.258;2023-08-17T03:44:49;4.93;;;3.80;;
12348;SDS011;5974;42.710;27.258;2023-08-17T03:47:17;7.23;;;4.00;;
12348;SDS011;5974;42.710;27.258;2023-08-17T03:49:44;5.60;;;3.63;;
12348;SDS011;5974;42.710;27.258;2023-08-17T03:52:11;5.23;;;3.50;;
12348;SDS011;5974;42.710;27.258;2023-08-17T03:54:38;5.07;;;3.53;;
12348;SDS011;5974;42.710;27.258;2023-08-17T03:57:06;10.97;;;3.70;;
12348;SDS011;5974;42.710;27.258;2023-08-17T03:59:33;5.37;;;3.47;;
12348;SDS011;5974;42.710;27.258;2023-08-17T04:02:00;7.87;;;3.50;;
12348;SDS011;5974;42.710;27.258;2023-08-17T04:04:27;4.13;;;3.23;;
12348;SDS011;5974;42.710;27.258;2023-08-17T04:06:54;6.67;;;3.10;;
12348;SDS011;5974;42.710;27.258;2023-08-17T04:09:21;3.40;;;3.10;;
12348;SDS011;5974;42.710;27.258;2023-08-17T04:11:48;6.53;;;3.50;;
12348;SDS011;5974;42.710;27.258;2023-08-17T04:14:16;3.27;;;3.07;;
12348;SDS011;5974;42.710;27.258;2023-08-17T04:16:43;5.03;;;3.60;;
12348;SDS011;5974;42.710;27.258;2023-08-17T04:19:10;5.17;;;3.53;;
12348;SDS011;5974;42.710;27.258;2023-08-17T04:21:36;4.53;;;3.30;;
12348;SDS011;5974;42.710;27.258;2023-08-17T04:24:04;4.23;;;3.37;;
12348;SDS011;5974;42.710;27.258;2023-08-17T04:26:31;4.53;;;3.43;;
12348;SDS011;5974;42.710;27.258;2023-08-17T04:28:58;9.43;;;4.63;;
12348;SDS011;5974;42.710;27.258;2023-08-17T04:31:26;5.43;;;4.93;;
12348;SDS011;5974;42.710;27.258;2023-08-17T04:33:53;9.10;;;6.00;;
12348;SDS011;5974;42.710;27.258;2023-08-17T04:36:20;8.33;;;6.33;;
12348;SDS011;5974;42.710;27.258;2023-08-17T04:38:46;5.33;;;4.33;;
12348;SDS011;5974;42.710;27.258;2023-08-17T04:41:13;4.90;;;4.40;;
12348;SDS011;5974;42.710;27.258;2023-08-17T04:43:40;5.87;;;3.57;;
12348;SDS011;5974;42.710;27.258;2023-08-17T04:46:08;4.53;;;3.30;;
12348;SDS011;5974;42.710;27.258;2023-08-17T04:48:36;4.18;;;2.92;;
12348;SDS011;5974;42.710;27.258;2023-08-17T04:51:03;5.10;;;3.20;;
12348;SDS011;5974;42.710;27.258;2023-08-17T04:53:30;7.32;;;3.28;;
12348;SDS011;5974;42.710;27.258;2023-08-17T04:55:58;3.35;;;3.08;;
12348;SDS011;5974;42.710;27.258;2023-08-17T04:58:26;4.22;;;3.10;;
12348;SDS011;5974;42.710;27.258;2023-08-17T05:00:53;6.35;;;3.60;;
12348;SDS011;5974;42.710;27.258;2023-08-17T05:03:19;4.20;;;2.90;;
12348;SDS011;5974;42.710;27.258;2023-08-17T05:05:48;3.35;;;3.00;;
12348;SDS011;5974;42.710;27.258;2023-08-17T05:08:14;3.83;;;3.03;;
12348;SDS011;5974;42.710;27.258;2023-08-17T05:10:41;4.65;;;3.22;;
12348;SDS011;5974;42.710;27.258;2023-08-17T05:13:08;5.28;;;3.25;;
12348;SDS011;5974;42.710;27.258;2023-08-17T05:15:35;4.65;;;2.80;;
12348;SDS011;5974;42.710;27.258;2023-08-17T05:18:02;7.55;;;2.83;;
12348;SDS011;5974;42.710;27.258;2023-08-17T05:20:29;4.30;;;3.08;;
12348;SDS011;5974;42.710;27.258;2023-08-17T05:22:57;3.90;;;2.90;;
12348;SDS011;5974;42.710;27.258;2023-08-17T05:25:25;3.97;;;3.03;;
12348;SDS011;5974;42.710;27.258;2023-08-17T05:27:52;4.05;;;3.22;;
12348;SDS011;5974;42.710;27.258;2023-08-17T05:30:19;4.68;;;3.22;;
12348;SDS011;5974;42.710;27.258;2023-08-17T05:32:46;4.80;;;3.38;;
12348;SDS011;5974;42.710;27.258;2023-08-17T05:35:12;9.77;;;3.90;;
12348;SDS011;5974;42.710;27.258;2023-08-17T05:37:39;4.95;;;3.13;;
12348;SDS011;5974;42.710;27.258;2023-08-17T05:40:08;5.50;;;3.20;;
12348;SDS011;5974;42.710;27.258;2023-08-17T05:42:36;6.05;;;3.40;;
12348;SDS011;5974;42.710;27.258;2023-08-17T05:45:03;3.42;;;2.92;;
12348;SDS011;5974;42.710;27.258;2023-08-17T05:47:30;3.65;;;2.92;;
12348;SDS011;5974;42.710;27.258;2023-08-17T05:49:57;6.40;;;3.42;;
12348;SDS011;5974;42.710;27.258;2023-08-17T05:52:24;3.90;;;3.40;;
12348;SDS011;5974;42.710;27.258;2023-08-17T05:54:51;3.80;;;3.10;;
12348;SDS011;5974;42.710;27.258;2023-08-17T05:57:19;4.60;;;3.22;;
12348;SDS011;5974;42.710;27.258;2023-08-17T05:59:46;5.05;;;3.35;;
12348;SDS011;5974;42.710;27.258;2023-08-17T06:02:13;4.38;;;3.30;;
12348;SDS011;5974;42.710;27.258;2023-08-17T06:04:40;4.22;;;2.95;;
12348;SDS011;5974;42.710;27.258;2023-08-17T06:07:07;4.38;;;3.30;;
12348;SDS011;5974;42.710;27.258;2023-08-17T06:09:34;3.65;;;2.75;;
12348;SDS011;5974;42.710;27.258;2023-08-17T06:12:01;5.70;;;3.10;;
12348;SDS011;5974;42.710;27.258;2023-08-17T06:14:30;6.63;;;3.10;;
12348;SDS011;5974;42.710;27.258;2023-08-17T06:16:57;3.53;;;2.70;;
12348;SDS011;5974;42.710;27.258;2023-08-17T06:19:23;4.55;;;3.22;;
12348;SDS011;5974;42.710;27.258;2023-08-17T06:21:50;4.55;;;3.22;;
12348;SDS011;5974;42.710;27.258;2023-08-17T06:24:17;5.85;;;3.28;;
12348;SDS011;5974;42.710;27.258;2023-08-17T06:26:44;5.57;;;2.95;;
12348;SDS011;5974;42.710;27.258;2023-08-17T06:29:11;5.20;;;3.38;;
12348;SDS011;5974;42.710;27.258;2023-08-17T06:31:40;3.47;;;2.95;;
12348;SDS011;5974;42.710;27.258;2023-08-17T06:34:06;4.95;;;3.22;;
12348;SDS011;5974;42.710;27.258;2023-08-17T06:36:33;5.72;;;3.03;;
12348;SDS011;5974;42.710;27.258;2023-08-17T06:39:00;4.20;;;3.80;;
12348;SDS011;5974;42.710;27.258;2023-08-17T06:41:27;7.25;;;3.70;;
12348;SDS011;5974;42.710;27.258;2023-08-17T06:43:54;4.30;;;3.10;;
12348;SDS011;5974;42.710;27.258;2023-08-17T06:46:21;3.40;;;3.10;;
12348;SDS011;5974;42.710;27.258;2023-08-17T06:48:51;4.30;;;2.88;;
12348;SDS011;5974;42.710;27.258;2023-08-17T06:51:17;4.95;;;2.88;;
12348;SDS011;5974;42.710;27.258;2023-08-17T06:53:44;7.00;;;3.28;;
12348;SDS011;5974;42.710;27.258;2023-08-17T06:56:11;3.55;;;2.97;;
12348;SDS011;5974;42.710;27.258;2023-08-17T06:58:38;4.43;;;3.00;;
12348;SDS011;5974;42.710;27.258;2023-08-17T07:01:05;5.82;;;2.97;;
12348;SDS011;5974;42.710;27.258;2023-08-17T07:03:32;3.95;;;2.80;;
12348;SDS011;5974;42.710;27.258;2023-08-17T07:06:00;3.65;;;2.78;;
12348;SDS011;5974;42.710;27.258;2023-08-17T07:08:27;3.25;;;3.00;;
12348;SDS011;5974;42.710;27.258;2023-08-17T07:10:54;4.13;;;2.80;;
12348;SDS011;5974;42.710;27.258;2023-08-17T07:13:20;4.47;;;2.80;;
12348;SDS011;5974;42.710;27.258;2023-08-17T07:15:47;4.13;;;2.80;;
12348;SDS011;5974;42.710;27.258;2023-08-17T07:18:14;3.17;;;2.88;;
12348;SDS011;5974;42.710;27.258;2023-08-17T07:20:41;5.25;;;3.33;;
12348;SDS011;5974;42.710;27.258;2023-08-17T07:23:09;6.68;;;3.03;;
12348;SDS011;5974;42.710;27.258;2023-08-17T07:25:36;5.35;;;3.25;;
12348;SDS011;5974;42.710;27.258;2023-08-17T07:28:03;2.90;;;2.60;;
12348;SDS011;5974;42.710;27.258;2023-08-17T07:30:30;4.03;;;2.88;;
12348;SDS011;5974;42.710;27.258;2023-08-17T07:32:57;4.72;;;3.05;;
12348;SDS011;5974;42.710;27.258;2023-08-17T07:35:24;4.85;;;2.47;;
12348;SDS011;5974;42.710;27.258;2023-08-17T07:37:51;4.88;;;2.45;;
12348;SDS011;5974;42.710;27.258;2023-08-17T07:40:19;4.68;;;3.00;;
12348;SDS011;5974;42.710;27.258;2023-08-17T07:42:46;8.27;;;2.97;;
12348;SDS011;5974;42.710;27.258;2023-08-17T07:45:13;4.88;;;2.70;;
12348;SDS011;5974;42.710;27.258;2023-08-17T07:47:40;5.35;;;2.95;;
12348;SDS011;5974;42.710;27.258;2023-08-17T07:50:07;3.30;;;2.53;;
12348;SDS011;5974;42.710;27.258;2023-08-17T07:52:34;4.57;;;2.70;;
12348;SDS011;5974;42.710;27.258;2023-08-17T07:55:01;4.55;;;3.80;;
12348;SDS011;5974;42.710;27.258;2023-08-17T07:57:30;4.28;;;3.45;;
12348;SDS011;5974;42.710;27.258;2023-08-17T07:59:57;3.85;;;3.20;;
12348;SDS011;5974;42.710;27.258;2023-08-17T08:02:24;5.82;;;3.30;;
12348;SDS011;5974;42.710;27.258;2023-08-17T08:04:50;4.20;;;2.92;;
12348;SDS011;5974;42.710;27.258;2023-08-17T08:07:17;4.10;;;3.10;;
12348;SDS011;5974;42.710;27.258;2023-08-17T08:09:44;4.13;;;3.20;;
12348;SDS011;5974;42.710;27.258;2023-08-17T08:12:11;5.82;;;3.10;;
12348;SDS011;5974;42.710;27.258;2023-08-17T08:14:39;4.00;;;3.17;;
12348;SDS011;5974;42.710;27.258;2023-08-17T08:17:06;5.75;;;3.30;;
12348;SDS011;5974;42.710;27.258;2023-08-17T08:19:33;3.67;;;3.38;;
12348;SDS011;5974;42.710;27.258;2023-08-17T08:22:00;5.10;;;3.17;;
12348;SDS011;5974;42.710;27.258;2023-08-17T08:24:27;5.53;;;2.92;;
12348;SDS011;5974;42.710;27.258;2023-08-17T08:26:59;6.53;;;3.28;;
12348;SDS011;5974;42.710;27.258;2023-08-17T08:29:25;8.20;;;3.13;;
12348;SDS011;5974;42.710;27.258;2023-08-17T08:31:54;5.35;;;2.83;;
12348;SDS011;5974;42.710;27.258;2023-08-17T08:34:22;8.77;;;3.13;;
12348;SDS011;5974;42.710;27.258;2023-08-17T08:36:49;7.03;;;3.00;;
12348;SDS011;5974;42.710;27.258;2023-08-17T08:39:16;3.65;;;3.00;;
12348;SDS011;5974;42.710;27.258;2023-08-17T08:41:43;7.32;;;2.90;;
12348;SDS011;5974;42.710;27.258;2023-08-17T08:44:09;5.22;;;3.10;;
12348;SDS011;5974;42.710;27.258;2023-08-17T08:46:36;5.63;;;2.83;;
12348;SDS011;5974;42.710;27.258;2023-08-17T08:49:08;4.25;;;3.08;;
12348;SDS011;5974;42.710;27.258;2023-08-17T08:51:38;3.10;;;2.63;;
12348;SDS011;5974;42.710;27.258;2023-08-17T08:54:11;2.72;;;2.47;;
12348;SDS011;5974;42.710;27.258;2023-08-17T08:56:41;5.28;;;2.88;;
12348;SDS011;5974;42.710;27.258;2023-08-17T08:59:11;4.30;;;2.70;;
12348;SDS011;5974;42.710;27.258;2023-08-17T09:01:38;4.30;;;2.70;;
12348;SDS011;5974;42.710;27.258;2023-08-17T09:04:05;5.45;;;2.60;;
12348;SDS011;5974;42.710;27.258;2023-08-17T09:06:33;3.47;;;2.60;;
12348;SDS011;5974;42.710;27.258;2023-08-17T09:09:00;7.70;;;2.92;;
12348;SDS011;5974;42.710;27.258;2023-08-17T09:11:28;7.93;;;2.90;;
12348;SDS011;5974;42.710;27.258;2023-08-17T09:13:56;3.92;;;2.75;;
12348;SDS011;5974;42.710;27.258;2023-08-17T09:16:23;2.70;;;2.50;;
12348;SDS011;5974;42.710;27.258;2023-08-17T09:18:51;3.45;;;2.88;;
12348;SDS011;5974;42.710;27.258;2023-08-17T09:21:22;4.05;;;2.70;;
12348;SDS011;5974;42.710;27.258;2023-08-17T09:23:54;4.15;;;2.50;;
12348;SDS011;5974;42.710;27.258;2023-08-17T09:26:22;3.45;;;2.70;;
12348;SDS011;5974;42.710;27.258;2023-08-17T09:28:49;6.88;;;2.75;;
12348;SDS011;5974;42.710;27.258;2023-08-17T09:31:16;3.70;;;2.63;;
12348;SDS011;5974;42.710;27.258;2023-08-17T09:33:48;3.83;;;2.70;;
12348;SDS011;5974;42.710;27.258;2023-08-17T09:36:19;3.15;;;2.75;;
12348;SDS011;5974;42.710;27.258;2023-08-17T09:38:47;2.70;;;2.50;;
12348;SDS011;5974;42.710;27.258;2023-08-17T09:41:17;6.22;;;3.03;;
12348;SDS011;5974;42.710;27.258;2023-08-17T09:43:44;6.88;;;3.00;;
12348;SDS011;5974;42.710;27.258;2023-08-17T09:46:11;3.75;;;2.60;;
12348;SDS011;5974;42.710;27.258;2023-08-17T09:48:38;7.88;;;3.10;;
12348;SDS011;5974;42.710;27.258;2023-08-17T09:51:05;3.05;;;2.70;;
12348;SDS011;5974;42.710;27.258;2023-08-17T09:53:34;5.60;;;3.30;;
12348;SDS011;5974;42.710;27.258;2023-08-17T09:56:02;3.97;;;2.50;;
12348;SDS011;5974;42.710;27.258;2023-08-17T09:58:34;4.18;;;2.70;;
12348;SDS011;5974;42.710;27.258;2023-08-17T10:01:02;4.78;;;3.00;;
12348;SDS011;5974;42.710;27.258;2023-08-17T10:03:32;4.60;;;2.95;;
12348;SDS011;5974;42.710;27.258;2023-08-17T10:06:01;6.28;;;2.70;;
12348;SDS011;5974;42.710;27.258;2023-08-17T10:08:32;5.65;;;2.90;;
12348;SDS011;5974;42.710;27.258;2023-08-17T10:11:02;4.00;;;3.00;;
12348;SDS011;5974;42.710;27.258;2023-08-17T10:13:37;4.35;;;2.78;;
12348;SDS011;5974;42.710;27.258;2023-08-17T10:16:09;3.08;;;2.50;;
12348;SDS011;5974;42.710;27.258;2023-08-17T10:18:45;3.42;;;2.83;;
12348;SDS011;5974;42.710;27.258;2023-08-17T10:21:23;5.20;;;3.05;;
12348;SDS011;5974;42.710;27.258;2023-08-17T10:23:55;6.75;;;2.80;;
12348;SDS011;5974;42.710;27.258;2023-08-17T10:26:22;4.57;;;2.70;;
12348;SDS011;5974;42.710;27.258;2023-08-17T10:28:51;5.47;;;2.85;;
12348;SDS011;5974;42.710;27.258;2023-08-17T10:31:19;3.70;;;2.83;;
12348;SDS011;5974;42.710;27.258;2023-08-17T10:33:47;3.53;;;2.80;;
12348;SDS011;5974;42.710;27.258;2023-08-17T10:36:14;6.40;;;3.00;;
12348;SDS011;5974;42.710;27.258;2023-08-17T10:38:42;7.00;;;2.90;;
12348;SDS011;5974;42.710;27.258;2023-08-17T10:41:09;3.55;;;2.85;;
12348;SDS011;5974;42.710;27.258;2023-08-17T10:43:54;4.07;;;3.00;;
12348;SDS011;5974;42.710;27.258;2023-08-17T10:46:27;4.00;;;2.53;;
12348;SDS011;5974;42.710;27.258;2023-08-17T10:49:00;4.78;;;2.55;;
12348;SDS011;5974;42.710;27.258;2023-08-17T10:51:29;3.33;;;2.60;;
12348;SDS011;5974;42.710;27.258;2023-08-17T10:53:57;5.03;;;2.83;;
12348;SDS011;5974;42.710;27.258;2023-08-17T10:56:26;4.88;;;2.95;;
12348;SDS011;5974;42.710;27.258;2023-08-17T10:58:55;3.65;;;3.03;;
12348;SDS011;5974;42.710;27.258;2023-08-17T11:01:32;4.13;;;2.85;;
12348;SDS011;5974;42.710;27.258;2023-08-17T11:04:09;4.45;;;2.88;;
12348;SDS011;5974;42.710;27.258;2023-08-17T11:06:37;6.32;;;2.85;;
12348;SDS011;5974;42.710;27.258;2023-08-17T11:09:06;3.17;;;2.80;;
12348;SDS011;5974;42.710;27.258;2023-08-17T11:11:34;4.28;;;3.00;;
12348;SDS011;5974;42.710;27.258;2023-08-17T11:14:02;3.58;;;2.97;;
12348;SDS011;5974;42.710;27.258;2023-08-17T11:16:30;5.45;;;2.40;;
12348;SDS011;5974;42.710;27.258;2023-08-17T11:18:56;3.20;;;2.53;;
12348;SDS011;5974;42.710;27.258;2023-08-17T11:21:25;3.15;;;2.80;;
12348;SDS011;5974;42.710;27.258;2023-08-17T11:23:54;4.55;;;2.67;;
12348;SDS011;5974;42.710;27.258;2023-08-17T11:26:22;6.65;;;2.83;;
12348;SDS011;5974;42.710;27.258;2023-08-17T11:28:50;3.53;;;2.70;;
12348;SDS011;5974;42.710;27.258;2023-08-17T11:31:19;3.70;;;2.83;;
12348;SDS011;5974;42.710;27.258;2023-08-17T11:33:46;4.03;;;2.35;;
12348;SDS011;5974;42.710;27.258;2023-08-17T11:36:13;6.72;;;2.50;;
12348;SDS011;5974;42.710;27.258;2023-08-17T11:38:40;5.03;;;2.53;;
12348;SDS011;5974;42.710;27.258;2023-08-17T11:41:08;3.95;;;2.90;;
12348;SDS011;5974;42.710;27.258;2023-08-17T11:43:36;7.10;;;2.85;;
12348;SDS011;5974;42.710;27.258;2023-08-17T11:46:03;5.43;;;3.03;;
12348;SDS011;5974;42.710;27.258;2023-08-17T11:48:32;7.80;;;2.50;;
12348;SDS011;5974;42.710;27.258;2023-08-17T11:50:59;4.00;;;2.90;;
12348;SDS011;5974;42.710;27.258;2023-08-17T11:53:32;5.80;;;2.90;;
12348;SDS011;5974;42.710;27.258;2023-08-17T11:55:59;5.35;;;2.85;;
12348;SDS011;5974;42.710;27.258;2023-08-17T11:58:36;4.80;;;3.08;;
12348;SDS011;5974;42.710;27.258;2023-08-17T12:01:03;5.85;;;3.13;;
12348;SDS011;5974;42.710;27.258;2023-08-17T12:03:37;4.45;;;2.97;;
12348;SDS011;5974;42.710;27.258;2023-08-17T12:06:05;5.75;;;3.05;;
12348;SDS011;5974;42.710;27.258;2023-08-17T12:08:32;4.40;;;2.70;;
12348;SDS011;5974;42.710;27.258;2023-08-17T12:11:00;3.65;;;2.75;;
12348;SDS011;5974;42.710;27.258;2023-08-17T12:13:30;3.50;;;2.70;;
12348;SDS011;5974;42.710;27.258;2023-08-17T12:15:59;3.33;;;3.03;;
12348;SDS011;5974;42.710;27.258;2023-08-17T12:18:26;3.92;;;3.15;;
12348;SDS011;5974;42.710;27.258;2023-08-17T12:20:54;6.88;;;3.10;;
12348;SDS011;5974;42.710;27.258;2023-08-17T12:23:21;3.58;;;3.00;;
12348;SDS011;5974;42.710;27.258;2023-08-17T12:25:52;5.00;;;2.95;;
12348;SDS011;5974;42.710;27.258;2023-08-17T12:28:19;2.90;;;2.70;;
12348;SDS011;5974;42.710;27.258;2023-08-17T12:30:46;4.90;;;2.75;;
12348;SDS011;5974;42.710;27.258;2023-08-17T12:33:13;4.13;;;2.67;;
12348;SDS011;5974;42.710;27.258;2023-08-17T12:35:40;5.70;;;2.70;;
12348;SDS011;5974;42.710;27.258;2023-08-17T12:38:08;6.28;;;2.83;;
12348;SDS011;5974;42.710;27.258;2023-08-17T12:40:35;6.40;;;2.70;;
12348;SDS011;5974;42.710;27.258;2023-08-17T12:43:02;7.15;;;2.92;;
12348;SDS011;5974;42.710;27.258;2023-08-17T12:45:28;3.35;;;2.50;;
12348;SDS011;5974;42.710;27.258;2023-08-17T12:47:56;6.53;;;2.80;;
12348;SDS011;5974;42.710;27.258;2023-08-17T12:50:23;2.92;;;2.58;;
12348;SDS011;5974;42.710;27.258;2023-08-17T12:52:49;4.28;;;2.90;;
12348;SDS011;5974;42.710;27.258;2023-08-17T12:55:18;4.20;;;2.85;;
12348;SDS011;5974;42.710;27.258;2023-08-17T12:57:44;9.15;;;3.17;;
12348;SDS011;5974;42.710;27.258;2023-08-17T13:00:12;4.45;;;3.00;;
12348;SDS011;5974;42.710;27.258;2023-08-17T13:02:39;4.50;;;3.05;;
12348;SDS011;5974;42.710;27.258;2023-08-17T13:05:06;8.63;;;3.22;;
12348;SDS011;5974;42.710;27.258;2023-08-17T13:07:33;3.63;;;3.10;;
12348;SDS011;5974;42.710;27.258;2023-08-17T13:10:00;7.20;;;2.90;;
12348;SDS011;5974;42.710;27.258;2023-08-17T13:12:28;2.92;;;2.70;;
12348;SDS011;5974;42.710;27.258;2023-08-17T13:14:55;7.32;;;3.33;;
12348;SDS011;5974;42.710;27.258;2023-08-17T13:17:22;6.00;;;3.13;;
12348;SDS011;5974;42.710;27.258;2023-08-17T13:19:48;4.10;;;3.30;;
12348;SDS011;5974;42.710;27.258;2023-08-17T13:22:15;3.58;;;3.10;;
12348;SDS011;5974;42.710;27.258;2023-08-17T13:24:42;6.10;;;3.05;;
12348;SDS011;5974;42.710;27.258;2023-08-17T13:27:09;4.03;;;3.17;;
12348;SDS011;5974;42.710;27.258;2023-08-17T13:29:37;5.57;;;3.40;;
12348;SDS011;5974;42.710;27.258;2023-08-17T13:32:05;6.70;;;3.30;;
12348;SDS011;5974;42.710;27.258;2023-08-17T13:34:32;6.18;;;3.17;;
12348;SDS011;5974;42.710;27.258;2023-08-17T13:36:59;3.63;;;2.67;;
12348;SDS011;5974;42.710;27.258;2023-08-17T13:39:28;4.40;;;3.28;;
12348;SDS011;5974;42.710;27.258;2023-08-17T13:41:54;3.45;;;3.15;;
12348;SDS011;5974;42.710;27.258;2023-08-17T13:44:21;4.90;;;3.30;;
12348;SDS011;5974;42.710;27.258;2023-08-17T13:46:50;5.20;;;3.38;;
12348;SDS011;5974;42.710;27.258;2023-08-17T13:49:16;6.82;;;3.30;;
12348;SDS011;5974;42.710;27.258;2023-08-17T13:51:43;5.97;;;3.20;;
12348;SDS011;5974;42.710;27.258;2023-08-17T13:54:10;3.38;;;3.08;;
12348;SDS011;5974;42.710;27.258;2023-08-17T13:56:37;4.78;;;3.67;;
12348;SDS011;5974;42.710;27.258;2023-08-17T13:59:04;8.65;;;3.70;;
12348;SDS011;5974;42.710;27.258;2023-08-17T14:01:30;5.57;;;3.22;;
12348;SDS011;5974;42.710;27.258;2023-08-17T14:03:59;4.78;;;3.50;;
12348;SDS011;5974;42.710;27.258;2023-08-17T14:06:28;3.80;;;3.03;;
12348;SDS011;5974;42.710;27.258;2023-08-17T14:08:55;6.13;;;3.35;;
12348;SDS011;5974;42.710;27.258;2023-08-17T14:11:22;3.83;;;3.05;;
12348;SDS011;5974;42.710;27.258;2023-08-17T14:13:49;6.55;;;3.65;;
12348;SDS011;5974;42.710;27.258;2023-08-17T14:16:15;3.83;;;3.47;;
12348;SDS011;5974;42.710;27.258;2023-08-17T14:18:42;4.75;;;3.60;;
12348;SDS011;5974;42.710;27.258;2023-08-17T14:21:10;6.05;;;3.72;;
12348;SDS011;5974;42.710;27.258;2023-08-17T14:23:37;5.72;;;3.85;;
12348;SDS011;5974;42.710;27.258;2023-08-17T14:26:05;3.88;;;3.30;;
12348;SDS011;5974;42.710;27.258;2023-08-17T14:28:32;5.95;;;3.38;;
12348;SDS011;5974;42.710;27.258;2023-08-17T14:30:59;6.07;;;3.50;;
12348;SDS011;5974;42.710;27.258;2023-08-17T14:33:26;4.35;;;3.10;;
12348;SDS011;5974;42.710;27.258;2023-08-17T14:35:53;7.20;;;3.70;;
12348;SDS011;5974;42.710;27.258;2023-08-17T14:38:21;4.60;;;3.23;;
12348;SDS011;5974;42.710;27.258;2023-08-17T14:40:48;5.80;;;3.00;;
12348;SDS011;5974;42.710;27.258;2023-08-17T14:43:15;3.67;;;3.38;;
12348;SDS011;5974;42.710;27.258;2023-08-17T14:45:42;5.45;;;3.03;;
12348;SDS011;5974;42.710;27.258;2023-08-17T14:48:09;3.63;;;3.30;;
12348;SDS011;5974;42.710;27.258;2023-08-17T14:50:36;3.23;;;2.93;;